עמוד ראשי
METAR-TAF:

METAR-TAF

שדות תעופה :

שדה תעופה

קהרמאנמרש, טורקיה

קו רוחב: 37-32-20N, קו אורך: 036-57-12E, גובה: 525מטר

תצפית מזג אוויר נוכחית

הדו"ח נערך לפני 1 שעות ו 23דקות, בשעה 11:50 UTC
רוח 16קשר מכיוון מערב
טמפרטורת 37 צלסיוס
לחות 33%
לחץ 1004 hPa
ראות 10 קילומטר או יותר
מעט עננים בגובה 4000רגל

METAR: LTCN 251150Z 28016KT 9999 FEW040 37/18 Q1004

זמן: 16:13 (13:13 UTC)

תחזית

הדו"ח נערך לפני 2 שעות ו 33דקות, בשעה 10:40 UTC
תחזית בתוקף מ 25 ב 12 UTC עד 25 ב 21 UTC
רוח 12קשר מכיוון מערב
ראות 10 קילומטר או יותר
מעט עננים בגובה 4000רגל
זמנית מ -
25 ב 12 UTC עד 25 ב 16 UTC
רוח 20קשר מכיוון מערב/צפון-מערב עם משבים עד 30קשר
יעשה מ
25 ב 16 UTC עד 25 ב 18 UTC
ראות 10 קילומטר או יותר
ללא עננים שבסיסם נמוך מ 5000 רגל או קומולונימבוס

TAF: LTCN 251040Z 2512/2521 28012KT 9999 FEW040 TEMPO 2512/2516 29020G30KT BECMG 2516/2518 CAVOK

תצפיות ותחזיות מזג אוויר לגבי יותר מ- 4,000 שדות תעופה ברחבי העולם. דוחות METAR ו- TAF.

התחנות הזמינות מסומנות בנקודות צהובות ואדומות על גבי המפה.

העבר את העכבר לנקודה הצבעונית על מנת לראות את שם התחנה.

לאחר מכן, לחץ כדי לראות את תוכן ואת תחזיות מזג האוויר.

כדי לשנות את המפה: לחץ על הכפתורים הירוקים עם הפלוס השחור כדי להתקרב; על הכפתור הירוק עם המקף כדי להתרחק; או בחיצים הירוקים למפות סמוכות.


METAR-TAF: